createdAt,value
2022-12-04T00:00:19.875Z,39.85
2022-12-04T00:02:46.514Z,40.35
2022-12-04T00:05:13.270Z,39.38
2022-12-04T00:07:39.952Z,39.30
2022-12-04T00:10:09.558Z,36.67
2022-12-04T00:12:36.229Z,41.38
2022-12-04T00:17:49.532Z,37.67
2022-12-04T00:20:20.685Z,39.40
2022-12-04T00:22:47.242Z,37.70
2022-12-04T00:25:15.293Z,38.97
2022-12-04T00:27:41.867Z,38.80
2022-12-04T00:30:09.331Z,37.58
2022-12-04T00:32:35.935Z,38.90
2022-12-04T00:35:02.620Z,40.05
2022-12-04T00:37:29.170Z,39.78
2022-12-04T00:39:56.046Z,39.80
2022-12-04T00:42:24.156Z,40.00
2022-12-04T00:44:50.903Z,39.55
2022-12-04T00:47:17.672Z,38.58
2022-12-04T00:49:44.254Z,40.30
2022-12-04T00:52:10.862Z,39.92
2022-12-04T00:54:37.432Z,39.00
2022-12-04T00:57:04.208Z,38.08
2022-12-04T00:59:32.333Z,41.53
2022-12-04T01:01:58.943Z,37.47
2022-12-04T01:04:25.552Z,39.13
2022-12-04T01:06:52.145Z,40.15
2022-12-04T01:09:18.756Z,39.88
2022-12-04T01:11:45.326Z,40.08
2022-12-04T01:14:12.072Z,39.35
2022-12-04T01:16:40.506Z,39.83
2022-12-04T01:19:10.092Z,39.63
2022-12-04T01:21:38.653Z,39.60
2022-12-04T01:24:05.997Z,40.17
2022-12-04T01:26:32.767Z,38.58
2022-12-04T01:28:59.391Z,39.72
2022-12-04T01:31:26.153Z,42.65
2022-12-04T01:33:54.322Z,38.55
2022-12-04T01:36:22.604Z,42.65
2022-12-04T01:38:49.459Z,40.53
2022-12-04T01:41:20.448Z,40.33
2022-12-04T01:44:15.198Z,40.42
2022-12-04T01:46:43.409Z,42.75
2022-12-04T01:49:14.038Z,42.47
2022-12-04T01:51:44.877Z,40.80
2022-12-04T01:54:18.935Z,43.10
2022-12-04T01:56:52.033Z,43.55
2022-12-04T01:59:24.106Z,41.80
2022-12-04T02:01:56.135Z,43.30
2022-12-04T02:04:24.276Z,41.60
2022-12-04T02:06:50.899Z,42.97
2022-12-04T02:09:23.028Z,42.15
2022-12-04T02:12:03.015Z,44.28
2022-12-04T02:14:36.049Z,43.03
2022-12-04T02:17:09.888Z,44.33
2022-12-04T02:19:55.988Z,41.42
2022-12-04T02:22:34.853Z,44.58
2022-12-04T02:25:14.264Z,44.25
2022-12-04T02:28:03.278Z,42.97
2022-12-04T02:30:31.836Z,41.67
2022-12-04T02:33:03.284Z,45.75
2022-12-04T02:35:35.720Z,44.72
2022-12-04T02:38:11.677Z,47.37
2022-12-04T02:40:45.256Z,45.72
2022-12-04T02:43:17.637Z,42.42
2022-12-04T02:45:47.299Z,45.50
2022-12-04T02:48:18.297Z,43.83
2022-12-04T02:50:49.450Z,44.20
2022-12-04T02:53:19.297Z,45.50
2022-12-04T02:55:51.970Z,46.97
2022-12-04T02:58:25.560Z,46.80
2022-12-04T03:00:55.246Z,45.63
2022-12-04T03:03:24.943Z,45.33
2022-12-04T03:05:57.989Z,45.10
2022-12-04T03:08:29.179Z,45.00
2022-12-04T03:10:59.206Z,43.80
2022-12-04T03:13:35.162Z,45.65
2022-12-04T03:16:06.805Z,45.70
2022-12-04T03:18:38.871Z,44.65
2022-12-04T03:21:09.807Z,44.83
2022-12-04T03:23:42.716Z,44.78
2022-12-04T03:26:16.242Z,46.78
2022-12-04T03:28:49.789Z,42.45
2022-12-04T03:31:22.695Z,45.75
2022-12-04T03:33:52.354Z,46.88
2022-12-04T03:36:22.568Z,47.58
2022-12-04T03:38:56.229Z,44.97
2022-12-04T03:41:30.386Z,46.90
2022-12-04T03:44:05.370Z,46.28
2022-12-04T03:46:38.595Z,45.95
2022-12-04T03:49:12.645Z,47.85
2022-12-04T03:51:43.460Z,47.42
2022-12-04T03:54:13.973Z,47.72
2022-12-04T03:56:46.498Z,46.53
2022-12-04T03:59:19.585Z,42.43
2022-12-04T04:01:48.529Z,47.53
2022-12-04T04:04:19.559Z,45.13
2022-12-04T04:06:50.645Z,47.17
2022-12-04T04:09:21.401Z,48.05
2022-12-04T04:11:52.924Z,47.92
2022-12-04T04:14:24.520Z,50.33
2022-12-04T04:16:59.286Z,43.90
2022-12-04T04:19:29.704Z,51.72
2022-12-04T04:21:58.999Z,50.15
2022-12-04T04:24:29.841Z,47.85
2022-12-04T04:26:58.639Z,47.25
2022-12-04T04:29:26.651Z,47.33
2022-12-04T04:32:00.254Z,46.97
2022-12-04T04:34:35.672Z,47.28
2022-12-04T04:37:11.547Z,45.15
2022-12-04T04:39:42.479Z,48.38
2022-12-04T04:42:17.747Z,47.53
2022-12-04T04:44:51.651Z,46.30
2022-12-04T04:47:25.773Z,46.65
2022-12-04T04:49:55.298Z,44.95
2022-12-04T04:52:24.108Z,45.63
2022-12-04T04:54:50.660Z,45.65
2022-12-04T04:57:26.693Z,45.75
2022-12-04T04:59:54.866Z,45.33
2022-12-04T05:02:21.787Z,46.72
2022-12-04T05:04:48.359Z,46.75
2022-12-04T05:07:14.971Z,46.05
2022-12-04T05:09:41.662Z,44.88
2022-12-04T05:12:08.749Z,45.70
2022-12-04T05:14:35.345Z,45.70
2022-12-04T05:17:07.848Z,46.30
2022-12-04T05:19:38.843Z,45.10
2022-12-04T05:22:05.378Z,45.92
2022-12-04T05:24:31.991Z,47.00
2022-12-04T05:26:58.569Z,43.53
2022-12-04T05:29:25.213Z,45.22
2022-12-04T05:31:51.809Z,45.50
2022-12-04T05:34:19.759Z,46.15
2022-12-04T05:36:46.357Z,45.28
2022-12-04T05:39:13.439Z,42.13
2022-12-04T05:41:40.070Z,45.45
2022-12-04T05:44:06.709Z,42.97
2022-12-04T05:46:33.370Z,45.65
2022-12-04T05:48:59.937Z,45.53
2022-12-04T05:51:27.912Z,42.88
2022-12-04T05:53:54.564Z,44.15
2022-12-04T05:56:21.491Z,44.08
2022-12-04T05:58:48.067Z,45.05
2022-12-04T06:01:16.976Z,43.70
2022-12-04T06:03:43.703Z,44.00
2022-12-04T06:06:16.178Z,46.42
2022-12-04T06:08:50.596Z,44.35
2022-12-04T06:11:19.624Z,42.58
2022-12-04T06:13:46.507Z,43.53
2022-12-04T06:16:14.702Z,43.50
2022-12-04T06:18:42.016Z,44.33
2022-12-04T06:21:09.164Z,45.97
2022-12-04T06:23:35.779Z,45.80
2022-12-04T06:26:07.084Z,41.20
2022-12-04T06:28:34.518Z,44.05
2022-12-04T06:31:02.040Z,47.00
2022-12-04T06:33:28.679Z,44.03
2022-12-04T06:35:58.660Z,44.15
2022-12-04T06:38:25.216Z,44.00
2022-12-04T06:40:51.869Z,43.67
2022-12-04T06:43:19.817Z,43.33
2022-12-04T06:45:46.442Z,43.65
2022-12-04T06:48:13.025Z,43.53
2022-12-04T06:50:39.607Z,42.13
2022-12-04T06:53:08.555Z,43.25
2022-12-04T06:55:35.400Z,44.78
2022-12-04T06:58:01.954Z,42.13
2022-12-04T07:00:29.961Z,43.35
2022-12-04T07:02:56.519Z,43.17
2022-12-04T07:05:23.078Z,45.88
2022-12-04T07:07:49.682Z,43.17
2022-12-04T07:10:16.346Z,43.13
2022-12-04T07:12:42.897Z,44.53
2022-12-04T07:15:10.396Z,41.90
2022-12-04T07:17:38.416Z,43.63
2022-12-04T07:20:06.336Z,44.15
2022-12-04T07:22:32.893Z,43.88
2022-12-04T07:24:59.469Z,42.65
2022-12-04T07:27:25.993Z,43.10
2022-12-04T07:29:52.784Z,44.38
2022-12-04T07:32:19.586Z,44.40
2022-12-04T07:34:47.604Z,42.38
2022-12-04T07:37:14.238Z,46.00
2022-12-04T07:39:40.942Z,41.95
2022-12-04T07:42:07.559Z,44.63
2022-12-04T07:44:34.162Z,42.65
2022-12-04T07:47:00.763Z,44.65
2022-12-04T07:49:27.567Z,45.38
2022-12-04T07:51:55.601Z,43.83
2022-12-04T07:54:22.181Z,45.25
2022-12-04T07:56:48.806Z,41.10
2022-12-04T07:59:15.411Z,43.55
2022-12-04T08:01:42.345Z,42.90
2022-12-04T08:04:10.746Z,42.78
2022-12-04T08:06:37.848Z,43.97
2022-12-04T08:09:10.170Z,43.78
2022-12-04T08:11:37.226Z,35.13
2022-12-04T08:14:05.876Z,43.63
2022-12-04T08:16:33.402Z,44.45
2022-12-04T08:19:00.631Z,42.17
2022-12-04T08:21:28.870Z,42.85
2022-12-04T08:23:56.984Z,42.47
2022-12-04T08:26:27.982Z,44.45
2022-12-04T08:28:55.534Z,43.10
2022-12-04T08:31:24.486Z,42.50
2022-12-04T08:33:53.294Z,41.42
2022-12-04T08:36:21.497Z,42.40
2022-12-04T08:38:48.499Z,42.15
2022-12-04T08:41:17.289Z,42.28
2022-12-04T08:43:45.412Z,43.22
2022-12-04T08:46:13.751Z,42.10
2022-12-04T08:48:40.374Z,44.70
2022-12-04T08:51:07.788Z,44.00
2022-12-04T08:53:35.261Z,43.00
2022-12-04T08:56:02.094Z,43.38
2022-12-04T08:58:28.710Z,41.50
2022-12-04T09:00:56.818Z,40.97
2022-12-04T09:03:29.217Z,40.33
2022-12-04T09:05:59.407Z,43.03
2022-12-04T09:08:26.032Z,42.17
2022-12-04T09:10:52.623Z,43.38
2022-12-04T09:13:19.285Z,42.30
2022-12-04T09:15:45.985Z,42.85
2022-12-04T09:18:13.951Z,42.00
2022-12-04T09:20:40.555Z,42.97
2022-12-04T09:23:07.370Z,40.80
2022-12-04T09:25:35.935Z,41.65
2022-12-04T09:28:02.538Z,40.58
2022-12-04T09:30:29.534Z,41.58
2022-12-04T09:32:56.131Z,42.50
2022-12-04T09:35:24.314Z,42.10
2022-12-04T09:37:51.159Z,40.15
2022-12-04T09:40:25.593Z,41.95
2022-12-04T09:43:01.557Z,41.63
2022-12-04T09:45:32.469Z,39.88
2022-12-04T09:48:01.600Z,40.78
2022-12-04T09:50:37.096Z,40.53
2022-12-04T09:53:10.825Z,41.55
2022-12-04T09:55:42.376Z,41.55
2022-12-04T09:58:14.706Z,41.13
2022-12-04T10:00:44.155Z,41.25
2022-12-04T10:03:16.156Z,39.75
2022-12-04T10:05:54.486Z,39.20
2022-12-04T10:08:25.196Z,37.08
2022-12-04T10:11:02.783Z,39.55
2022-12-04T10:13:47.627Z,40.67
2022-12-04T10:16:21.315Z,40.33
2022-12-04T10:18:56.023Z,41.85
2022-12-04T10:21:36.430Z,40.15
2022-12-04T10:24:16.614Z,40.70
2022-12-04T10:26:46.273Z,40.45
2022-12-04T10:29:19.745Z,38.50
2022-12-04T10:31:47.966Z,40.28
2022-12-04T10:34:18.118Z,39.30
2022-12-04T10:36:51.453Z,41.75
2022-12-04T10:39:23.803Z,39.05
2022-12-04T10:41:55.611Z,38.83
2022-12-04T10:44:22.270Z,39.15
2022-12-04T10:46:53.315Z,40.22
2022-12-04T10:49:23.621Z,39.55
2022-12-04T10:51:51.963Z,38.92
2022-12-04T10:54:21.722Z,37.53
2022-12-04T10:56:53.448Z,37.40
2022-12-04T10:59:20.141Z,38.90
2022-12-04T11:01:47.295Z,40.22
2022-12-04T11:04:22.072Z,40.75
2022-12-04T11:06:49.739Z,38.45
2022-12-04T11:09:23.826Z,38.03
2022-12-04T11:11:51.041Z,41.15
2022-12-04T11:14:20.192Z,39.78
2022-12-04T11:16:49.223Z,38.63
2022-12-04T11:19:24.833Z,38.92
2022-12-04T11:21:52.982Z,38.50
2022-12-04T11:24:23.566Z,38.80
2022-12-04T11:26:51.318Z,40.55
2022-12-04T11:29:20.812Z,39.33
2022-12-04T11:31:49.324Z,37.10
2022-12-04T11:34:19.852Z,40.22
2022-12-04T11:36:51.949Z,38.70
2022-12-04T11:39:26.951Z,39.05
2022-12-04T11:42:00.525Z,39.90
2022-12-04T11:44:28.900Z,39.90
2022-12-04T11:46:57.884Z,39.58
2022-12-04T11:49:26.285Z,37.25
2022-12-04T11:52:05.091Z,39.70
2022-12-04T11:54:43.818Z,37.60
2022-12-04T11:57:22.543Z,39.20
2022-12-04T12:00:02.315Z,38.10
2022-12-04T12:02:50.808Z,37.42
2022-12-04T12:05:39.559Z,38.30
2022-12-04T12:08:14.499Z,36.63
2022-12-04T12:10:53.091Z,36.83
2022-12-04T12:13:27.178Z,37.42
2022-12-04T12:16:04.238Z,39.25
2022-12-04T12:18:51.475Z,36.60
2022-12-04T12:21:24.285Z,37.28
2022-12-04T12:24:07.165Z,39.65
2022-12-04T12:26:45.237Z,30.15
2022-12-04T12:29:27.672Z,34.95
2022-12-04T12:32:14.992Z,37.40
2022-12-04T12:34:44.515Z,35.08
2022-12-04T12:37:21.018Z,36.33
2022-12-04T12:39:55.792Z,38.08
2022-12-04T12:42:30.629Z,37.63
2022-12-04T12:45:04.524Z,37.03
2022-12-04T12:47:38.794Z,37.10
2022-12-04T12:50:14.645Z,35.65
2022-12-04T12:52:47.798Z,35.45
2022-12-04T12:55:17.948Z,36.20
2022-12-04T12:57:49.829Z,36.58
2022-12-04T13:00:19.480Z,37.60
2022-12-04T13:02:53.521Z,36.40
2022-12-04T13:05:25.066Z,37.30
2022-12-04T13:08:01.456Z,35.20
2022-12-04T13:10:33.922Z,37.67
2022-12-04T13:13:05.835Z,35.88
2022-12-04T13:15:38.929Z,36.97
2022-12-04T13:18:09.212Z,35.00
2022-12-04T13:20:43.635Z,36.72
2022-12-04T13:23:37.343Z,33.58
2022-12-04T13:26:16.330Z,35.15
2022-12-04T13:28:53.423Z,36.75
2022-12-04T13:31:30.607Z,36.80
2022-12-04T13:34:27.918Z,35.78
2022-12-04T13:37:25.285Z,34.45
2022-12-04T13:40:32.402Z,37.63
2022-12-04T13:43:35.180Z,36.08
2022-12-04T13:46:06.801Z,36.25
2022-12-04T13:48:37.421Z,37.30
2022-12-04T13:51:07.682Z,36.38
2022-12-04T13:53:36.464Z,37.55
2022-12-04T13:56:08.178Z,35.65
2022-12-04T13:58:37.085Z,36.92
2022-12-04T14:01:07.991Z,35.03
2022-12-04T14:03:44.370Z,35.55
2022-12-04T14:06:24.086Z,37.63
2022-12-04T14:08:56.512Z,37.90
2022-12-04T14:11:23.799Z,35.90
2022-12-04T14:13:52.483Z,35.70
2022-12-04T14:16:23.312Z,37.17
2022-12-04T14:18:52.933Z,39.20
2022-12-04T14:21:19.626Z,37.53
2022-12-04T14:23:46.811Z,36.63
2022-12-04T14:26:29.305Z,38.03
2022-12-04T14:29:27.813Z,38.05
2022-12-04T14:31:57.804Z,37.58
2022-12-04T14:34:27.651Z,35.53
2022-12-04T14:36:56.727Z,37.97
2022-12-04T14:39:26.672Z,36.45
2022-12-04T14:42:04.033Z,36.03
2022-12-04T14:44:31.439Z,38.05
2022-12-04T14:47:13.550Z,35.17
2022-12-04T14:49:54.247Z,38.97
2022-12-04T14:52:28.201Z,35.55
2022-12-04T14:55:02.152Z,37.33
2022-12-04T14:57:44.611Z,38.35
2022-12-04T15:00:16.496Z,36.78
2022-12-04T15:02:46.756Z,39.35
2022-12-04T15:05:20.014Z,37.85
2022-12-04T15:07:49.601Z,39.05
2022-12-04T15:10:23.381Z,34.92
2022-12-04T15:12:52.986Z,39.53
2022-12-04T15:15:21.683Z,36.47
2022-12-04T15:18:01.831Z,38.10
2022-12-04T15:20:36.095Z,37.38
2022-12-04T15:23:05.399Z,36.60
2022-12-04T15:25:40.597Z,38.13
2022-12-04T15:28:12.539Z,37.28
2022-12-04T15:30:41.871Z,38.13
2022-12-04T15:33:20.781Z,37.83
2022-12-04T15:35:51.774Z,36.03
2022-12-04T15:38:18.839Z,41.00
2022-12-04T15:40:54.553Z,40.47
2022-12-04T15:43:29.838Z,38.92
2022-12-04T15:45:56.989Z,39.97
2022-12-04T15:48:27.272Z,36.58
2022-12-04T15:51:00.771Z,38.50
2022-12-04T15:53:30.223Z,38.38
2022-12-04T15:56:01.217Z,39.22
2022-12-04T15:58:30.189Z,41.15
2022-12-04T16:00:58.653Z,39.22
2022-12-04T16:03:30.252Z,39.53
2022-12-04T16:06:14.469Z,41.95
2022-12-04T16:08:42.833Z,40.58
2022-12-04T16:11:27.446Z,39.08
2022-12-04T16:14:04.669Z,43.05
2022-12-04T16:16:31.810Z,40.55
2022-12-04T16:19:00.846Z,41.60
2022-12-04T16:21:31.273Z,40.08
2022-12-04T16:24:01.455Z,40.72
2022-12-04T16:26:28.238Z,40.60
2022-12-04T16:28:54.829Z,41.33
2022-12-04T16:31:23.409Z,40.47
2022-12-04T16:33:50.168Z,39.92
2022-12-04T16:36:18.588Z,39.38
2022-12-04T16:38:45.321Z,42.08
2022-12-04T16:41:13.956Z,40.17
2022-12-04T16:43:40.787Z,41.17
2022-12-04T16:46:13.766Z,41.58
2022-12-04T16:48:41.290Z,40.17
2022-12-04T16:51:13.565Z,42.20
2022-12-04T16:53:41.776Z,40.90
2022-12-04T16:56:09.066Z,39.60
2022-12-04T16:58:35.846Z,39.92
2022-12-04T17:01:04.248Z,43.75
2022-12-04T17:03:32.426Z,43.83
2022-12-04T17:05:59.930Z,42.75
2022-12-04T17:08:27.029Z,44.90
2022-12-04T17:10:55.538Z,42.97
2022-12-04T17:13:22.632Z,47.42
2022-12-04T17:15:49.362Z,45.97
2022-12-04T17:18:20.764Z,43.90
2022-12-04T17:20:48.202Z,43.10
2022-12-04T17:23:14.845Z,44.30
2022-12-04T17:25:41.674Z,43.20
2022-12-04T17:28:09.787Z,43.72
2022-12-04T17:30:36.713Z,46.60
2022-12-04T17:33:03.937Z,46.50
2022-12-04T17:35:30.875Z,43.80
2022-12-04T17:38:02.080Z,44.58
2022-12-04T17:40:32.336Z,43.63
2022-12-04T17:42:58.947Z,43.88
2022-12-04T17:45:26.994Z,43.95
2022-12-04T17:47:53.599Z,42.47
2022-12-04T17:50:20.325Z,45.55
2022-12-04T17:52:46.975Z,46.25
2022-12-04T17:55:13.782Z,44.00
2022-12-04T17:57:40.492Z,43.90
2022-12-04T18:00:08.700Z,45.45
2022-12-04T18:02:37.405Z,45.35
2022-12-04T18:05:04.363Z,44.78
2022-12-04T18:07:31.384Z,46.33
2022-12-04T18:09:58.280Z,44.92
2022-12-04T18:12:25.114Z,46.10
2022-12-04T18:14:52.858Z,47.45
2022-12-04T18:17:19.438Z,46.28
2022-12-04T18:19:47.496Z,43.97
2022-12-04T18:22:14.136Z,45.42
2022-12-04T18:24:40.934Z,48.13
2022-12-04T18:27:08.162Z,46.95
2022-12-04T18:29:34.867Z,48.70
2022-12-04T18:32:01.582Z,45.42
2022-12-04T18:34:28.397Z,48.13
2022-12-04T18:36:56.459Z,52.58
2022-12-04T18:39:25.192Z,46.22
2022-12-04T18:41:54.463Z,47.95
2022-12-04T18:44:21.084Z,47.95
2022-12-04T18:46:47.722Z,46.85
2022-12-04T18:49:14.501Z,48.28
2022-12-04T18:51:46.986Z,50.65
2022-12-04T18:54:19.276Z,47.67
2022-12-04T18:56:46.154Z,50.58
2022-12-04T18:59:17.593Z,45.92
2022-12-04T19:01:44.578Z,48.33
2022-12-04T19:04:13.119Z,49.60
2022-12-04T19:06:43.202Z,45.80
2022-12-04T19:09:11.751Z,45.17
2022-12-04T19:11:40.388Z,47.00
2022-12-04T19:14:16.081Z,43.85
2022-12-04T19:16:48.040Z,45.17
2022-12-04T19:19:15.236Z,44.60
2022-12-04T19:21:42.101Z,45.15
2022-12-04T19:24:10.136Z,45.33
2022-12-04T19:26:36.873Z,47.33
2022-12-04T19:29:07.799Z,49.83
2022-12-04T19:31:37.150Z,48.15
2022-12-04T19:34:04.865Z,51.42
2022-12-04T19:36:32.640Z,50.40
2022-12-04T19:39:00.600Z,48.28
2022-12-04T19:41:28.682Z,50.53
2022-12-04T19:43:57.473Z,46.33
2022-12-04T19:46:28.297Z,48.20
2022-12-04T19:48:56.552Z,45.13
2022-12-04T19:51:23.246Z,48.22
2022-12-04T19:53:49.976Z,49.25
2022-12-04T19:56:18.653Z,51.45
2022-12-04T19:58:45.435Z,48.85
2022-12-04T20:01:19.380Z,48.88
2022-12-04T20:03:47.426Z,45.30
2022-12-04T20:06:15.950Z,48.30
2022-12-04T20:08:42.685Z,47.55
2022-12-04T20:11:11.667Z,47.95
2022-12-04T20:13:39.019Z,46.15
2022-12-04T20:16:07.958Z,46.35
2022-12-04T20:18:36.069Z,44.40
2022-12-04T20:21:04.592Z,49.38
2022-12-04T20:23:31.282Z,44.42
2022-12-04T20:26:04.124Z,45.70
2022-12-04T20:28:30.679Z,42.13
2022-12-04T20:30:57.306Z,47.33
2022-12-04T20:33:23.880Z,46.05
2022-12-04T20:35:50.593Z,44.10
2022-12-04T20:38:18.649Z,43.88
2022-12-04T20:40:45.771Z,44.97
2022-12-04T20:43:12.358Z,46.38
2022-12-04T20:45:38.914Z,47.95
2022-12-04T20:48:06.076Z,46.78
2022-12-04T20:50:32.620Z,44.90
2022-12-04T20:52:59.298Z,42.97
2022-12-04T20:55:27.235Z,45.67
2022-12-04T20:57:53.783Z,46.22
2022-12-04T21:00:20.415Z,40.50
2022-12-04T21:02:47.069Z,45.17
2022-12-04T21:05:13.753Z,44.25
2022-12-04T21:07:40.417Z,43.40
2022-12-04T21:10:08.125Z,41.90
2022-12-04T21:12:41.458Z,42.15
2022-12-04T21:15:09.982Z,46.10
2022-12-04T21:17:36.555Z,44.80
2022-12-04T21:20:07.735Z,45.72
2022-12-04T21:22:34.931Z,46.17
2022-12-04T21:25:01.596Z,43.15
2022-12-04T21:27:28.352Z,44.55
2022-12-04T21:29:56.563Z,43.22
2022-12-04T21:32:23.287Z,42.95
2022-12-04T21:34:49.906Z,42.63
2022-12-04T21:37:16.581Z,42.80
2022-12-04T21:39:43.425Z,42.28
2022-12-04T21:42:10.071Z,41.20
2022-12-04T21:44:36.818Z,42.83
2022-12-04T21:47:04.946Z,45.72
2022-12-04T21:49:31.579Z,42.55
2022-12-04T21:51:59.093Z,41.97
2022-12-04T21:54:26.269Z,40.58
2022-12-04T21:56:53.012Z,40.17
2022-12-04T21:59:19.710Z,45.67
2022-12-04T22:01:46.327Z,42.53
2022-12-04T22:04:14.411Z,43.40
2022-12-04T22:06:41.133Z,42.47
2022-12-04T22:09:10.253Z,42.15
2022-12-04T22:11:37.403Z,43.10
2022-12-04T22:14:04.246Z,44.75
2022-12-04T22:16:32.831Z,43.35
2022-12-04T22:19:01.320Z,42.10
2022-12-04T22:21:29.517Z,42.40
2022-12-04T22:23:56.650Z,41.33
2022-12-04T22:26:23.777Z,42.83
2022-12-04T22:28:50.829Z,39.58
2022-12-04T22:31:20.109Z,40.88
2022-12-04T22:33:47.352Z,41.97
2022-12-04T22:36:15.783Z,42.75
2022-12-04T22:39:06.039Z,40.80
2022-12-04T22:41:31.192Z,39.45
2022-12-04T22:43:57.765Z,40.95
2022-12-04T22:46:24.565Z,40.85
2022-12-04T22:48:51.283Z,39.95
2022-12-04T22:51:19.973Z,40.83
2022-12-04T22:53:49.352Z,41.80
2022-12-04T22:56:18.325Z,40.03
2022-12-04T22:58:45.220Z,41.30
2022-12-04T23:01:13.305Z,40.42
2022-12-04T23:03:40.372Z,41.65
2022-12-04T23:06:08.273Z,42.05
2022-12-04T23:08:35.319Z,41.38
2022-12-04T23:11:08.556Z,44.05
2022-12-04T23:13:35.294Z,39.90
2022-12-04T23:16:09.160Z,42.10
2022-12-04T23:18:36.588Z,41.33
2022-12-04T23:21:05.336Z,41.78
2022-12-04T23:23:33.418Z,41.63
2022-12-04T23:26:02.296Z,41.75
2022-12-04T23:28:30.436Z,44.20
2022-12-04T23:30:57.362Z,42.13
2022-12-04T23:33:24.136Z,44.30
2022-12-04T23:35:51.960Z,47.25
2022-12-04T23:38:18.670Z,43.47
2022-12-04T23:40:45.444Z,44.78
2022-12-04T23:43:12.047Z,44.25
2022-12-04T23:45:40.109Z,43.85
2022-12-04T23:48:06.720Z,43.90
2022-12-04T23:50:33.388Z,42.17
2022-12-04T23:53:00.023Z,42.83
2022-12-04T23:55:31.078Z,49.08
2022-12-04T23:58:00.542Z,42.97
